Have a Safe July 4th! 

Flight Track Log - Related Links

Times and Time Zones

All times are in EDT time to prevent confusion due to time zone crossing. See the FDX1425 flight status page for this flight to view local times or setup timezone preferences in your user account.

Time Position Orientation Groundspeed Altitude Reporting Facility
EDT Latitude Longitude Course Direction KTS MPH feet Rate Location/Type
Tue 05:12:18 AM 35.0167 -89.9833 180° South 173 199 900  Level KMEM
Tue 05:12:54 AM 34.9833 -89.9833 180° South 189 217 1,900 2,340 Climbing KMEM
Tue 05:14:00 AM 34.9059 -90.0941 219° Southwest  Level FlightAware Approximate
Tue 05:16:19 AM 34.7819 -90.1497 213° Southwest 362 417 10,300  Level Memphis Center
Tue 05:17:19 AM 34.7028 -90.2358 222° Southwest 386 444 12,200 2,100 Climbing Memphis Center
Tue 05:18:19 AM 34.6192 -90.3319 223° Southwest 404 465 14,500 2,300 Climbing Memphis Center
Tue 05:19:19 AM 34.5378 -90.4278 224° Southwest 409 471 16,800 2,100 Climbing Memphis Center
Tue 05:20:19 AM 34.4461 -90.5183 219° Southwest 427 491 18,700 1,900 Climbing Memphis Center
Tue 05:21:00 AM 34.3058 -90.6288 213° Southwest  Level FlightAware Approximate
Tue 05:22:19 AM 34.2475 -90.7014 217° Southwest 451 519 22,500  Level Memphis Center
Tue 05:23:19 AM 34.1386 -90.8064 219° Southwest 451 519 24,000 1,400 Climbing Memphis Center
Tue 05:24:19 AM 34.0358 -90.9036 218° Southwest 462 532 25,300 1,400 Climbing Memphis Center
Tue 05:25:19 AM 33.9311 -91.0006 218° Southwest 474 545 26,800 1,300 Climbing Memphis Center
Tue 05:26:19 AM 33.8242 -91.0947 216° Southwest 474 545 27,900 1,150 Climbing Memphis Center
Tue 05:27:19 AM 33.7336 -91.2114 227° Southwest 479 551 29,100 1,450 Climbing Memphis Center
Tue 05:28:19 AM 33.6492 -91.3356 231° Southwest 474 545 30,800 1,491 Climbing Memphis Center
Tue 05:30:12 AM 33.5008 -91.5650 232° Southwest 464 534 33,400 1,561 Climbing Fort Worth Center
Tue 05:31:12 AM 33.4186 -91.6800 229° Southwest 469 540 35,300 382 Climbing Fort Worth Center
Tue 05:37:00 AM 32.7872 -92.1485 229° Southwest 486 559 36,000 84 Climbing FlightAware ADS-B
Tue 05:39:33 AM 32.4726 -92.2890 201° Southwest 478 550 36,000  Level FlightAware ADS-B
Tue 05:44:27 AM 31.9796 -92.7829 220° Southwest 484 557 36,000  Level FlightAware ADS-B
Tue 05:47:57 AM 31.6333 -93.1761 224° Southwest 500 575 36,000  Level FlightAware ADS-B
Tue 05:49:03 AM 31.5241 -93.2994 224° Southwest 494 568 36,000  Level FlightAware ADS-B
Tue 05:50:03 AM 31.4361 -93.4014 224° Southwest 493 567 36,000 -1,158 Level Houston Center
Tue 05:55:47 AM 30.8517 -94.0460 224° Southwest 494 568 28,200 -1,460 Descending FlightAware ADS-B
Tue 05:56:17 AM 30.8023 -94.1002 223° Southwest 480 552 26,900 -2,557 Descending FlightAware ADS-B
Tue 05:56:48 AM 30.7540 -94.1545 224° Southwest 466 536 25,600 -2,557 Descending FlightAware ADS-B
Tue 05:57:18 AM 30.7073 -94.2058 223° Southwest 456 525 24,300 -2,600 Descending FlightAware ADS-B
Tue 05:57:48 AM 30.6614 -94.2561 223° Southwest 450 518 23,000 -2,557 Descending FlightAware ADS-B
Tue 05:58:19 AM 30.6157 -94.3064 223° Southwest 436 502 21,700 -2,516 Descending FlightAware ADS-B
Tue 05:58:50 AM 30.5709 -94.3553 223° Southwest 424 488 20,400 -2,529 Descending FlightAware ADS-B
Tue 06:00:20 AM 30.4430 -94.4946 223° Southwest 411 473 16,600 -2,507 Descending FlightAware ADS-B
Tue 06:01:16 AM 30.3661 -94.5772 223° Southwest 395 455 14,300 -1,608 Descending FlightAware ADS-B
Tue 06:03:49 AM 30.1838 -94.7759 223° Southwest 318 366 11,000 -1,246 Descending FlightAware ADS-B
Tue 06:04:19 AM 30.1521 -94.8098 223° Southwest 303 349 10,500 -900 Descending FlightAware ADS-B
Tue 06:04:49 AM 30.1217 -94.8420 222° Southwest 286 329 10,100 -1,315 Descending FlightAware ADS-B
Tue 06:05:32 AM 30.0801 -94.8861 221° Southwest 281 323 8,900 -2,020 Descending FlightAware ADS-B
Tue 06:06:27 AM 30.0275 -94.9413 223° Southwest 275 316 6,800 -2,286 Descending FlightAware ADS-B
Tue 06:06:35 AM 30.0211 -94.9501 232° Southwest 272 313 6,500 -1,714 Descending FlightAware ADS-B
Tue 06:06:41 AM 30.0174 -94.9576 243° Southwest 270 311 6,400 -1,941 Descending FlightAware ADS-B
Tue 06:07:09 AM 30.0086 -94.9958 257° West 261 300 5,400 -1,731 Descending FlightAware ADS-B
Tue 06:07:33 AM 30.0020 -95.0276 256° West 247 284 4,900 -1,231 Descending FlightAware ADS-B
Tue 06:07:48 AM 29.9977 -95.0463 255° West 236 272 4,600 -1,475 Descending FlightAware ADS-B
Tue 06:08:34 AM 29.9855 -95.1007 255° West 225 259 3,400 -1,343 Descending FlightAware ADS-B
Tue 06:08:55 AM 29.9802 -95.1249 254° West 209 241 3,100 -828 Descending FlightAware ADS-B
Tue 06:09:03 AM 29.9785 -95.1335 258° West 203 234 3,000 -800 Descending FlightAware ADS-B
Tue 06:09:10 AM 29.9782 -95.1410 267° West 203 234 2,900 -1,250 Descending FlightAware ADS-B
Tue 06:09:27 AM 29.9777 -95.1591 268° West 197 227 2,500 -1,333 Descending FlightAware ADS-B
Tue 06:09:46 AM 29.9778 -95.1785 272° West 184 212 2,100 -1,034 Descending FlightAware ADS-B
Tue 06:09:56 AM 29.9778 -95.1877 270° West 168 193 2,000 -857 Descending FlightAware ADS-B
Tue 06:10:14 AM 29.9776 -95.2027 269° West 143 165 1,700 -857 Descending FlightAware ADS-B
Tue 06:10:31 AM 29.9777 -95.2149 271° West 127 146 1,500 -615 Descending FlightAware ADS-B
Tue 06:10:53 AM 29.9776 -95.2295 270° West 124 143 1,300 -514 Descending FlightAware ADS-B
Tue 06:11:06 AM 29.9775 -95.2381 269° West 124 143 1,200 -692 Descending FlightAware ADS-B
Tue 06:11:19 AM 29.9776 -95.2469 271° West 126 145 1,000 -783 Descending FlightAware ADS-B
Tue 06:11:29 AM 29.9777 -95.2536 271° West 127 146 900 -667 Descending FlightAware ADS-B
Tue 06:11:37 AM 29.9777 -95.2591 270° West 128 147 800 -522 Descending FlightAware ADS-B
Tue 06:11:52 AM 29.9776 -95.2694 269° West 131 151 700 -667 Descending FlightAware ADS-B
Tue 06:12:04 AM 29.9775 -95.2778 269° West 134 154 500 -667 Descending FlightAware ADS-B
Tue 06:12:19 AM 29.9775 -95.2886 270° West 135 155 400 -692 Descending FlightAware ADS-B
Tue 06:12:30 AM 29.9776 -95.2966 271° West 138 159 200 -1,091 Descending FlightAware ADS-B

Login

Don't have an account? Register now (free) for customized features, flight alerts, and more!